Regal Star — ESCM — position and weather

sailwx.info

Track history (hours):
 
Tides and Currents Weather Stations Pressure Air Temp Water Temp Dewpoint Dewpoint Depression Visibility Wind Speed Wind Dir Waves Ship Positions

Regal Star

Last reported at 2015-Aug-02 23:33 UTC. Time now 2015-Aug-03 21:18 UTC.
Position N 59°29' E 021°17'.

Length 157 m; draft 6.1 m.

Type: Passenger vessel. MMSI: 276554000.

Date/timePositionNaut miles runAvg speedWind from/ knotsBaromVisibWave heightAir tempDewpointWater temp
2015-Aug-02 23:33N 59°29' E 021°17'1615.6
2015-Aug-02 22:34N 59°25' E 021°46'9 0.8
2015-Aug-02 11:32N 59°27' E 022°03'1616.0
2015-Aug-02 10:33N 59°32' E 021°33'1616.2
2015-Aug-02 09:33N 59°36' E 021°03'11 1.1
2015-Aug-01 23:33N 59°29' E 021°19'1515.4
2015-Aug-01 22:33N 59°25' E 021°48'1515.5
2015-Aug-01 21:33N 59°21' E 022°18'1615.6
2015-Aug-01 20:33N 59°21' E 022°48'22 1.4
2015-Aug-01 04:23N 59°23' E 023°32'2714.7
2015-Aug-01 02:33N 59°23' E 022°40'1514.9
2015-Aug-01 01:33N 59°26' E 022°11'1515.0
2015-Aug-01 00:33N 59°30' E 021°42'1515.3
2015-Jul-31 23:33N 59°33' E 021°13'9 0.4
2015-Jul-30 23:28N 59°28' E 021°27'1415.1
2015-Jul-30 22:31N 59°25' E 021°55'4 0.2
2015-Jul-30 00:33N 59°29' E 021°53'1515.0
2015-Jul-29 23:32N 59°33' E 021°24'63 3.2
2015-Jul-29 03:32N 59°46' E 019°21'5914.8
2015-Jul-28 23:34N 59°29' E 021°13'1515.2
2015-Jul-28 22:33N 59°26' E 021°42'1515.2
2015-Jul-28 21:34N 59°24' E 022°11'1514.9
2015-Jul-28 20:33N 59°20' E 022°40'1515.3
2015-Jul-28 19:34N 59°21' E 023°10'1915.3
2015-Jul-28 18:20N 59°23' E 023°46'10 0.8
2015-Jul-28 05:31N 59°20' E 024°04'6314.3
2015-Jul-28 01:07N 59°27' E 022°02'915.2
2015-Jul-28 00:33N 59°30' E 021°46'1515.1
2015-Jul-27 23:33N 59°34' E 021°17'8 0.3
2015-Jul-26 23:18N 59°27' E 021°28'1414.1
2015-Jul-26 22:20N 59°24' E 021°54'4 0.4
2015-Jul-26 11:21N 59°28' E 021°57'1215.5
2015-Jul-26 10:33N 59°32' E 021°34'1615.4
2015-Jul-26 09:29N 59°36' E 021°02'22 2.0
2015-Jul-25 22:33N 59°26' E 021°41'5215.1
2015-Jul-25 19:07N 59°22' E 023°23'915.3
2015-Jul-25 18:33N 59°22' E 023°39'3 0.2
2015-Jul-25 04:33N 59°23' E 023°44'4815.3
2015-Jul-25 01:25N 59°26' E 022°10'1415.6
2015-Jul-25 00:33N 59°30' E 021°45'1515.4
2015-Jul-24 23:33N 59°34' E 021°16'1715.8
2015-Jul-24 22:30N 59°39' E 020°44'1515.4
2015-Jul-24 21:33N 59°45' E 020°18'2015.8
2015-Jul-24 20:18N 59°45' E 019°38'53 2.6
2015-Jul-23 23:33N 59°29' E 021°18'  
Track history (hours):
 
Tides and Currents Weather Stations Pressure Air Temp Water Temp Dewpoint Dewpoint Depression Visibility Wind Speed Wind Dir Waves Ship Positions

Regal Star

Last reported at 2015-Aug-02 23:33 UTC. Time now 2015-Aug-03 21:18 UTC.
Position N 59°29' E 021°17'.

Length 157 m; draft 6.1 m.

Type: Passenger vessel. MMSI: 276554000.

Date/timePositionNaut miles runAvg speedWind from/ knotsBaromVisibWave heightAir tempDewpointWater temp
2015-Aug-02 23:33N 59°29' E 021°17'1615.6
2015-Aug-02 22:34N 59°25' E 021°46'9 0.8
2015-Aug-02 11:32N 59°27' E 022°03'1616.0
2015-Aug-02 10:33N 59°32' E 021°33'1616.2
2015-Aug-02 09:33N 59°36' E 021°03'11 1.1
2015-Aug-01 23:33N 59°29' E 021°19'1515.4
2015-Aug-01 22:33N 59°25' E 021°48'1515.5
2015-Aug-01 21:33N 59°21' E 022°18'1615.6
2015-Aug-01 20:33N 59°21' E 022°48'22 1.4
2015-Aug-01 04:23N 59°23' E 023°32'2714.7
2015-Aug-01 02:33N 59°23' E 022°40'1514.9
2015-Aug-01 01:33N 59°26' E 022°11'1515.0
2015-Aug-01 00:33N 59°30' E 021°42'1515.3
2015-Jul-31 23:33N 59°33' E 021°13'9 0.4
2015-Jul-30 23:28N 59°28' E 021°27'1415.1
2015-Jul-30 22:31N 59°25' E 021°55'4 0.2
2015-Jul-30 00:33N 59°29' E 021°53'1515.0
2015-Jul-29 23:32N 59°33' E 021°24'63 3.2
2015-Jul-29 03:32N 59°46' E 019°21'5914.8
2015-Jul-28 23:34N 59°29' E 021°13'1515.2
2015-Jul-28 22:33N 59°26' E 021°42'1515.2
2015-Jul-28 21:34N 59°24' E 022°11'1514.9
2015-Jul-28 20:33N 59°20' E 022°40'1515.3
2015-Jul-28 19:34N 59°21' E 023°10'1915.3
2015-Jul-28 18:20N 59°23' E 023°46'10 0.8
2015-Jul-28 05:31N 59°20' E 024°04'6314.3
2015-Jul-28 01:07N 59°27' E 022°02'915.2
2015-Jul-28 00:33N 59°30' E 021°46'1515.1
2015-Jul-27 23:33N 59°34' E 021°17'8 0.3
2015-Jul-26 23:18N 59°27' E 021°28'1414.1
2015-Jul-26 22:20N 59°24' E 021°54'4 0.4
2015-Jul-26 11:21N 59°28' E 021°57'1215.5
2015-Jul-26 10:33N 59°32' E 021°34'1615.4
2015-Jul-26 09:29N 59°36' E 021°02'22 2.0
2015-Jul-25 22:33N 59°26' E 021°41'5215.1
2015-Jul-25 19:07N 59°22' E 023°23'915.3
2015-Jul-25 18:33N 59°22' E 023°39'3 0.2
2015-Jul-25 04:33N 59°23' E 023°44'4815.3
2015-Jul-25 01:25N 59°26' E 022°10'1415.6
2015-Jul-25 00:33N 59°30' E 021°45'1515.4
2015-Jul-24 23:33N 59°34' E 021°16'1715.8
2015-Jul-24 22:30N 59°39' E 020°44'1515.4
2015-Jul-24 21:33N 59°45' E 020°18'2015.8
2015-Jul-24 20:18N 59°45' E 019°38'53 2.6
2015-Jul-23 23:33N 59°29' E 021°18'  

Dump ship's entire track history